PWSweather.com
Personal Weather Stations
Station Observations
KMIEASTT1
Tawas Bay, East Tawas, MI 48730

Tawas BayEast Tawas, MI 48730

Lat: 44.28, Lon: -83.48

Elevation: 600

Station Type: Davis VantagePro

http://www.tawasbayweather.com

High Low Average
Temperature 60.1°F15.6°F 38.5°F3.6°F 51.1°F10.6°F
Dew Point 56.1°F13.4°F 37.2°F2.9°F 47.4°F8.6°F
Winds 20.0 mph S32.2 mph S Calm Calm 5.5 mph 8.9 mph
Wind Gusts 22.0 mph35.4 mph 1.0 mph1.6 mph 7.5 mph12.1 mph
Humidity 97% 76% 87%
Pressure 30.30 in1026.10 in 29.97 in1014.90 in -
Precipitation 0.00 in0.00 in - -
Hour Temp Dew Point Humidity Winds Wind Gusts Pressure Precip Precip Rate Daily Precip Total
12:00 AM 42.7°F5.9°C 39.7°F4.3°C 89% 2.0 mph NE3.2 kmh NE 2.0 mph3.2 kmh 30.27 in1025.1 mb 0.00 in0.0 mm 0.00 in/hr0.0 mm/hr 0.00 in0.0 mm
12:15 AM 42.9°F6.1°C 40.2°F4.6°C 90% 1.0 mph NE1.6 kmh NE 2.0 mph3.2 kmh 30.27 in1025.1 mb 0.00 in0.0 mm 0.00 in/hr0.0 mm/hr 0.00 in0.0 mm
12:30 AM 44.0°F6.7°C 41.0°F5.0°C 89% 3.0 mph E4.8 kmh E 3.0 mph4.8 kmh 30.27 in1025.1 mb 0.00 in0.0 mm 0.00 in/hr0.0 mm/hr 0.00 in0.0 mm
12:45 AM 45.3°F7.4°C 41.4°F5.2°C 86% 1.0 mph NE1.6 kmh NE 3.0 mph4.8 kmh 30.27 in1025.1 mb 0.00 in0.0 mm 0.00 in/hr0.0 mm/hr 0.00 in0.0 mm
01:00 AM 46.5°F8.1°C 41.6°F5.3°C 83% 1.0 mph NE1.6 kmh NE 4.0 mph6.4 kmh 30.27 in1025.1 mb 0.00 in0.0 mm 0.00 in/hr0.0 mm/hr 0.00 in0.0 mm
01:15 AM 45.4°F7.4°C 40.9°F4.9°C 84% 2.0 mph E3.2 kmh E 3.0 mph4.8 kmh 30.27 in1025.1 mb 0.00 in0.0 mm 0.00 in/hr0.0 mm/hr 0.00 in0.0 mm
01:30 AM 43.0°F6.1°C 39.4°F4.1°C 87% 2.0 mph NE3.2 kmh NE 3.0 mph4.8 kmh 30.28 in1025.4 mb 0.00 in0.0 mm 0.00 in/hr0.0 mm/hr 0.00 in0.0 mm
01:45 AM 41.5°F5.3°C 38.8°F3.8°C 90% 2.0 mph NE3.2 kmh NE 3.0 mph4.8 kmh 30.28 in1025.4 mb 0.00 in0.0 mm 0.00 in/hr0.0 mm/hr 0.00 in0.0 mm
02:00 AM 40.2°F4.6°C 37.8°F3.2°C 91% 2.0 mph NE3.2 kmh NE 3.0 mph4.8 kmh 30.29 in1025.7 mb 0.00 in0.0 mm 0.00 in/hr0.0 mm/hr 0.00 in0.0 mm
02:15 AM 40.0°F4.4°C 38.1°F3.4°C 93% 2.0 mph NNE3.2 kmh NNE 3.0 mph4.8 kmh 30.29 in1025.7 mb 0.00 in0.0 mm 0.00 in/hr0.0 mm/hr 0.00 in0.0 mm
02:30 AM 39.7°F4.3°C 38.1°F3.4°C 94% 2.0 mph NNE3.2 kmh NNE 3.0 mph4.8 kmh 30.29 in1025.7 mb 0.00 in0.0 mm 0.00 in/hr0.0 mm/hr 0.00 in0.0 mm
02:45 AM 39.7°F4.3°C 38.1°F3.4°C 94% 1.0 mph N1.6 kmh N 3.0 mph4.8 kmh 30.29 in1025.7 mb 0.00 in0.0 mm 0.00 in/hr0.0 mm/hr 0.00 in0.0 mm
03:00 AM 39.3°F4.1°C 37.7°F3.2°C 94% 3.0 mph N4.8 kmh N 3.0 mph4.8 kmh 30.29 in1025.7 mb 0.00 in0.0 mm 0.00 in/hr0.0 mm/hr 0.00 in0.0 mm
03:15 AM 38.9°F3.8°C 37.6°F3.1°C 95% 1.0 mph N1.6 kmh N 3.0 mph4.8 kmh 30.28 in1025.4 mb 0.00 in0.0 mm 0.00 in/hr0.0 mm/hr 0.00 in0.0 mm
03:30 AM 38.7°F3.7°C 37.4°F3.0°C 95% 3.0 mph N4.8 kmh N 3.0 mph4.8 kmh 30.27 in1025.1 mb 0.00 in0.0 mm 0.00 in/hr0.0 mm/hr 0.00 in0.0 mm
03:45 AM 38.5°F3.6°C 37.2°F2.9°C 95% 2.0 mph N3.2 kmh N 3.0 mph4.8 kmh 30.27 in1025.1 mb 0.00 in0.0 mm 0.00 in/hr0.0 mm/hr 0.00 in0.0 mm
04:00 AM 38.6°F3.7°C 37.3°F2.9°C 95% 1.0 mph N1.6 kmh N 4.0 mph6.4 kmh 30.27 in1025.1 mb 0.00 in0.0 mm 0.00 in/hr0.0 mm/hr 0.00 in0.0 mm
04:15 AM 38.6°F3.7°C 37.3°F2.9°C 95% 3.0 mph NNW4.8 kmh NNW 4.0 mph6.4 kmh 30.27 in1025.1 mb 0.00 in0.0 mm 0.00 in/hr0.0 mm/hr 0.00 in0.0 mm
04:30 AM 38.9°F3.8°C 37.9°F3.3°C 96% 2.0 mph NNW3.2 kmh NNW 3.0 mph4.8 kmh 30.27 in1025.1 mb 0.00 in0.0 mm 0.00 in/hr0.0 mm/hr 0.00 in0.0 mm
04:45 AM 39.0°F3.9°C 38.0°F3.3°C 96% Calm Calm 2.0 mph3.2 kmh 30.27 in1025.1 mb 0.00 in0.0 mm 0.00 in/hr0.0 mm/hr 0.00 in0.0 mm
05:00 AM 39.7°F4.3°C 38.7°F3.7°C 96% 2.0 mph N3.2 kmh N 3.0 mph4.8 kmh 30.27 in1025.1 mb 0.00 in0.0 mm 0.00 in/hr0.0 mm/hr 0.00 in0.0 mm
05:15 AM 40.3°F4.6°C 39.3°F4.1°C 96% Calm Calm 2.0 mph3.2 kmh 30.28 in1025.4 mb 0.00 in0.0 mm 0.00 in/hr0.0 mm/hr 0.00 in0.0 mm
05:30 AM 40.8°F4.9°C 39.8°F4.3°C 96% 2.0 mph N3.2 kmh N 3.0 mph4.8 kmh 30.28 in1025.4 mb 0.00 in0.0 mm 0.00 in/hr0.0 mm/hr 0.00 in0.0 mm
05:45 AM 41.4°F5.2°C 40.4°F4.7°C 96% 1.0 mph N1.6 kmh N 4.0 mph6.4 kmh 30.28 in1025.4 mb 0.00 in0.0 mm 0.00 in/hr0.0 mm/hr 0.00 in0.0 mm
06:00 AM 41.8°F5.4°C 40.8°F4.9°C 96% 2.0 mph N3.2 kmh N 3.0 mph4.8 kmh 30.28 in1025.4 mb 0.00 in0.0 mm 0.00 in/hr0.0 mm/hr 0.00 in0.0 mm
06:15 AM 41.9°F5.5°C 40.9°F4.9°C 96% 2.0 mph N3.2 kmh N 3.0 mph4.8 kmh 30.28 in1025.4 mb 0.00 in0.0 mm 0.00 in/hr0.0 mm/hr 0.00 in0.0 mm
06:30 AM 41.7°F5.4°C 40.4°F4.7°C 95% 3.0 mph N4.8 kmh N 4.0 mph6.4 kmh 30.28 in1025.4 mb 0.00 in0.0 mm 0.00 in/hr0.0 mm/hr 0.00 in0.0 mm
06:45 AM 41.5°F5.3°C 40.2°F4.6°C 95% Calm Calm 4.0 mph6.4 kmh 30.29 in1025.7 mb 0.00 in0.0 mm 0.00 in/hr0.0 mm/hr 0.00 in0.0 mm
07:00 AM 41.1°F5.1°C 39.8°F4.3°C 95% 3.0 mph N4.8 kmh N 4.0 mph6.4 kmh 30.28 in1025.4 mb 0.00 in0.0 mm 0.00 in/hr0.0 mm/hr 0.00 in0.0 mm
07:15 AM 43.3°F6.3°C 42.5°F5.8°C 97% 4.0 mph SE6.4 kmh SE 7.0 mph11.3 kmh 30.28 in1025.4 mb 0.00 in0.0 mm 0.00 in/hr0.0 mm/hr 0.00 in0.0 mm
07:30 AM 42.2°F5.7°C 40.3°F4.6°C 93% Calm Calm 3.0 mph4.8 kmh 30.29 in1025.7 mb 0.00 in0.0 mm 0.00 in/hr0.0 mm/hr 0.00 in0.0 mm
07:45 AM 41.0°F5.0°C 39.4°F4.1°C 94% 2.0 mph NNW3.2 kmh NNW 3.0 mph4.8 kmh 30.29 in1025.7 mb 0.00 in0.0 mm 0.00 in/hr0.0 mm/hr 0.00 in0.0 mm
08:00 AM 41.3°F5.2°C 40.0°F4.4°C 95% 2.0 mph NNW3.2 kmh NNW 3.0 mph4.8 kmh 30.30 in1026.1 mb 0.00 in0.0 mm 0.00 in/hr0.0 mm/hr 0.00 in0.0 mm
08:15 AM 42.3°F5.7°C 41.2°F5.1°C 96% 2.0 mph NNW3.2 kmh NNW 4.0 mph6.4 kmh 30.29 in1025.7 mb 0.00 in0.0 mm 0.00 in/hr0.0 mm/hr 0.00 in0.0 mm
08:30 AM 43.9°F6.6°C 42.6°F5.9°C 95% 2.0 mph N3.2 kmh N 3.0 mph4.8 kmh 30.29 in1025.7 mb 0.00 in0.0 mm 0.00 in/hr0.0 mm/hr 0.00 in0.0 mm
08:45 AM 45.6°F7.6°C 44.3°F6.8°C 95% Calm Calm 2.0 mph3.2 kmh 30.29 in1025.7 mb 0.00 in0.0 mm 0.00 in/hr0.0 mm/hr 0.00 in0.0 mm
09:00 AM 47.3°F8.5°C 45.4°F7.4°C 93% Calm Calm 2.0 mph3.2 kmh 30.29 in1025.7 mb 0.00 in0.0 mm 0.00 in/hr0.0 mm/hr 0.00 in0.0 mm
09:15 AM 48.7°F9.3°C 46.2°F7.9°C 91% Calm Calm 1.0 mph1.6 kmh 30.30 in1026.1 mb 0.00 in0.0 mm 0.00 in/hr0.0 mm/hr 0.00 in0.0 mm
09:30 AM 50.4°F10.2°C 46.7°F8.2°C 87% Calm Calm 1.0 mph1.6 kmh 30.28 in1025.4 mb 0.00 in0.0 mm 0.00 in/hr0.0 mm/hr 0.00 in0.0 mm
09:45 AM 53.2°F11.8°C 47.9°F8.8°C 82% 6.0 mph SE9.7 kmh SE 8.0 mph12.9 kmh 30.28 in1025.4 mb 0.00 in0.0 mm 0.00 in/hr0.0 mm/hr 0.00 in0.0 mm
10:00 AM 53.4°F11.9°C 47.4°F8.6°C 80% 7.0 mph SE11.3 kmh SE 9.0 mph14.5 kmh 30.28 in1025.4 mb 0.00 in0.0 mm 0.00 in/hr0.0 mm/hr 0.00 in0.0 mm
10:15 AM 53.2°F11.8°C 46.5°F8.1°C 78% 6.0 mph SE9.7 kmh SE 8.0 mph12.9 kmh 30.28 in1025.4 mb 0.00 in0.0 mm 0.00 in/hr0.0 mm/hr 0.00 in0.0 mm
10:30 AM 53.6°F12.0°C 47.3°F8.5°C 79% 6.0 mph SE9.7 kmh SE 8.0 mph12.9 kmh 30.28 in1025.4 mb 0.00 in0.0 mm 0.00 in/hr0.0 mm/hr 0.00 in0.0 mm
10:45 AM 53.6°F12.0°C 46.2°F7.9°C 76% 5.0 mph SSE8.0 kmh SSE 7.0 mph11.3 kmh 30.28 in1025.4 mb 0.00 in0.0 mm 0.00 in/hr0.0 mm/hr 0.00 in0.0 mm
11:00 AM 53.9°F12.2°C 47.6°F8.7°C 79% 7.0 mph S11.3 kmh S 9.0 mph14.5 kmh 30.28 in1025.4 mb 0.00 in0.0 mm 0.00 in/hr0.0 mm/hr 0.00 in0.0 mm
11:15 AM 53.9°F12.2°C 47.6°F8.7°C 79% 7.0 mph SSE11.3 kmh SSE 11.0 mph17.7 kmh 30.27 in1025.1 mb 0.00 in0.0 mm 0.00 in/hr0.0 mm/hr 0.00 in0.0 mm
11:30 AM 53.9°F12.2°C 47.9°F8.8°C 80% 7.0 mph S11.3 kmh S 11.0 mph17.7 kmh 30.27 in1025.1 mb 0.00 in0.0 mm 0.00 in/hr0.0 mm/hr 0.00 in0.0 mm
11:45 AM 53.6°F12.0°C 47.9°F8.8°C 81% 6.0 mph SSE9.7 kmh SSE 10.0 mph16.1 kmh 30.26 in1024.7 mb 0.00 in0.0 mm 0.00 in/hr0.0 mm/hr 0.00 in0.0 mm
12:00 PM 54.0°F12.2°C 48.6°F9.2°C 82% 9.0 mph S14.5 kmh S 11.0 mph17.7 kmh 30.25 in1024.4 mb 0.00 in0.0 mm 0.00 in/hr0.0 mm/hr 0.00 in0.0 mm
12:15 PM 53.8°F12.1°C 48.8°F9.3°C 83% 9.0 mph SSE14.5 kmh SSE 10.0 mph16.1 kmh 30.24 in1024.0 mb 0.00 in0.0 mm 0.00 in/hr0.0 mm/hr 0.00 in0.0 mm
12:30 PM 54.1°F12.3°C 49.1°F9.5°C 83% 8.0 mph S12.9 kmh S 11.0 mph17.7 kmh 30.24 in1024.0 mb 0.00 in0.0 mm 0.00 in/hr0.0 mm/hr 0.00 in0.0 mm
12:45 PM 54.3°F12.4°C 49.3°F9.6°C 83% 8.0 mph S12.9 kmh S 9.0 mph14.5 kmh 30.25 in1024.4 mb 0.00 in0.0 mm 0.00 in/hr0.0 mm/hr 0.00 in0.0 mm
01:00 PM 54.4°F12.4°C 49.4°F9.7°C 83% 6.0 mph S9.7 kmh S 9.0 mph14.5 kmh 30.24 in1024.0 mb 0.00 in0.0 mm 0.00 in/hr0.0 mm/hr 0.00 in0.0 mm
01:15 PM 54.6°F12.6°C 50.2°F10.1°C 85% 6.0 mph S9.7 kmh S 8.0 mph12.9 kmh 30.23 in1023.7 mb 0.00 in0.0 mm 0.00 in/hr0.0 mm/hr 0.00 in0.0 mm
01:30 PM 54.8°F12.7°C 50.1°F10.1°C 84% 5.0 mph S8.0 kmh S 8.0 mph12.9 kmh 30.22 in1023.4 mb 0.00 in0.0 mm 0.00 in/hr0.0 mm/hr 0.00 in0.0 mm
01:45 PM 55.0°F12.8°C 50.6°F10.3°C 85% 5.0 mph SSW8.0 kmh SSW 8.0 mph12.9 kmh 30.22 in1023.4 mb 0.00 in0.0 mm 0.00 in/hr0.0 mm/hr 0.00 in0.0 mm
02:00 PM 55.5°F13.1°C 51.1°F10.6°C 85% 7.0 mph S11.3 kmh S 7.0 mph11.3 kmh 30.21 in1023.0 mb 0.00 in0.0 mm 0.00 in/hr0.0 mm/hr 0.00 in0.0 mm
02:15 PM 56.0°F13.3°C 50.9°F10.5°C 83% 5.0 mph SSW8.0 kmh SSW 7.0 mph11.3 kmh 30.21 in1023.0 mb 0.00 in0.0 mm 0.00 in/hr0.0 mm/hr 0.00 in0.0 mm
02:30 PM 56.8°F13.8°C 52.0°F11.1°C 84% 5.0 mph S8.0 kmh S 7.0 mph11.3 kmh 30.20 in1022.7 mb 0.00 in0.0 mm 0.00 in/hr0.0 mm/hr 0.00 in0.0 mm
02:45 PM 57.6°F14.2°C 52.8°F11.6°C 84% 6.0 mph SSE9.7 kmh SSE 7.0 mph11.3 kmh 30.18 in1022.0 mb 0.00 in0.0 mm 0.00 in/hr0.0 mm/hr 0.00 in0.0 mm
03:00 PM 58.0°F14.4°C 52.9°F11.6°C 83% 4.0 mph SSE6.4 kmh SSE 8.0 mph12.9 kmh 30.17 in1021.7 mb 0.00 in0.0 mm 0.00 in/hr0.0 mm/hr 0.00 in0.0 mm
03:15 PM 58.2°F14.6°C 53.1°F11.7°C 83% 5.0 mph S8.0 kmh S 6.0 mph9.7 kmh 30.17 in1021.7 mb 0.00 in0.0 mm 0.00 in/hr0.0 mm/hr 0.00 in0.0 mm
03:30 PM 58.7°F14.8°C 52.9°F11.6°C 81% 6.0 mph SW9.7 kmh SW 8.0 mph12.9 kmh 30.17 in1021.7 mb 0.00 in0.0 mm 0.00 in/hr0.0 mm/hr 0.00 in0.0 mm
03:45 PM 58.7°F14.8°C 52.9°F11.6°C 81% 7.0 mph S11.3 kmh S 8.0 mph12.9 kmh 30.16 in1021.3 mb 0.00 in0.0 mm 0.00 in/hr0.0 mm/hr 0.00 in0.0 mm
04:00 PM 58.8°F14.9°C 53.3°F11.8°C 82% 6.0 mph S9.7 kmh S 6.0 mph9.7 kmh 30.15 in1021.0 mb 0.00 in0.0 mm 0.00 in/hr0.0 mm/hr 0.00 in0.0 mm
04:15 PM 58.8°F14.9°C 53.3°F11.8°C 82% 4.0 mph S6.4 kmh S 6.0 mph9.7 kmh 30.15 in1021.0 mb 0.00 in0.0 mm 0.00 in/hr0.0 mm/hr 0.00 in0.0 mm
04:30 PM 59.1°F15.1°C 53.6°F12.0°C 82% 5.0 mph S8.0 kmh S 7.0 mph11.3 kmh 30.14 in1020.7 mb 0.00 in0.0 mm 0.00 in/hr0.0 mm/hr 0.00 in0.0 mm
04:45 PM 59.3°F15.2°C 53.8°F12.1°C 82% 6.0 mph SSE9.7 kmh SSE 7.0 mph11.3 kmh 30.12 in1020.0 mb 0.00 in0.0 mm 0.00 in/hr0.0 mm/hr 0.00 in0.0 mm
05:00 PM 59.5°F15.3°C 54.0°F12.2°C 82% 7.0 mph SSE11.3 kmh SSE 8.0 mph12.9 kmh 30.11 in1019.6 mb 0.00 in0.0 mm 0.00 in/hr0.0 mm/hr 0.00 in0.0 mm
05:15 PM 59.6°F15.3°C 54.4°F12.4°C 83% 6.0 mph SE9.7 kmh SE 8.0 mph12.9 kmh 30.10 in1019.3 mb 0.00 in0.0 mm 0.00 in/hr0.0 mm/hr 0.00 in0.0 mm
05:30 PM 59.5°F15.3°C 55.0°F12.8°C 85% 4.0 mph SSE6.4 kmh SSE 7.0 mph11.3 kmh 30.09 in1019.0 mb 0.00 in0.0 mm 0.00 in/hr0.0 mm/hr 0.00 in0.0 mm
05:45 PM 59.1°F15.1°C 54.9°F12.7°C 86% 7.0 mph SE11.3 kmh SE 8.0 mph12.9 kmh 30.08 in1018.6 mb 0.00 in0.0 mm 0.00 in/hr0.0 mm/hr 0.00 in0.0 mm
06:00 PM 59.1°F15.1°C 55.6°F13.1°C 88% 8.0 mph SE12.9 kmh SE 8.0 mph12.9 kmh 30.08 in1018.6 mb 0.00 in0.0 mm 0.00 in/hr0.0 mm/hr 0.00 in0.0 mm
06:15 PM 59.1°F15.1°C 55.6°F13.1°C 88% 6.0 mph SSE9.7 kmh SSE 7.0 mph11.3 kmh 30.07 in1018.3 mb 0.00 in0.0 mm 0.00 in/hr0.0 mm/hr 0.00 in0.0 mm
06:30 PM 59.0°F15.0°C 55.8°F13.2°C 89% 5.0 mph SE8.0 kmh SE 8.0 mph12.9 kmh 30.05 in1017.6 mb 0.00 in0.0 mm 0.00 in/hr0.0 mm/hr 0.00 in0.0 mm
06:45 PM 59.0°F15.0°C 56.1°F13.4°C 90% 7.0 mph SE11.3 kmh SE 8.0 mph12.9 kmh 30.05 in1017.6 mb 0.00 in0.0 mm 0.00 in/hr0.0 mm/hr 0.00 in0.0 mm
07:00 PM 59.2°F15.1°C 55.7°F13.2°C 88% 8.0 mph SE12.9 kmh SE 10.0 mph16.1 kmh 30.04 in1017.3 mb 0.00 in0.0 mm 0.00 in/hr0.0 mm/hr 0.00 in0.0 mm
07:15 PM 59.1°F15.1°C 55.9°F13.3°C 89% 5.0 mph S8.0 kmh S 6.0 mph9.7 kmh 30.04 in1017.3 mb 0.00 in0.0 mm 0.00 in/hr0.0 mm/hr 0.00 in0.0 mm
07:30 PM 59.2°F15.1°C 55.7°F13.2°C 88% 3.0 mph S4.8 kmh S 6.0 mph9.7 kmh 30.04 in1017.3 mb 0.00 in0.0 mm 0.00 in/hr0.0 mm/hr 0.00 in0.0 mm
07:45 PM 59.0°F15.0°C 56.1°F13.4°C 90% 3.0 mph S4.8 kmh S 5.0 mph8.0 kmh 30.03 in1016.9 mb 0.00 in0.0 mm 0.00 in/hr0.0 mm/hr 0.00 in0.0 mm
08:00 PM 58.9°F14.9°C 56.0°F13.3°C 90% 5.0 mph S8.0 kmh S 6.0 mph9.7 kmh 30.03 in1016.9 mb 0.00 in0.0 mm 0.00 in/hr0.0 mm/hr 0.00 in0.0 mm
08:15 PM 59.8°F15.4°C 55.6°F13.1°C 86% 9.0 mph SSE14.5 kmh SSE 11.0 mph17.7 kmh 30.03 in1016.9 mb 0.00 in0.0 mm 0.00 in/hr0.0 mm/hr 0.00 in0.0 mm
08:30 PM 60.1°F15.6°C 54.3°F12.4°C 81% 11.0 mph SE17.7 kmh SE 16.0 mph25.7 kmh 30.02 in1016.6 mb 0.00 in0.0 mm 0.00 in/hr0.0 mm/hr 0.00 in0.0 mm
08:45 PM 59.8°F15.4°C 53.3°F11.8°C 79% 15.0 mph SE24.1 kmh SE 18.0 mph29.0 kmh 30.02 in1016.6 mb 0.00 in0.0 mm 0.00 in/hr0.0 mm/hr 0.00 in0.0 mm
09:00 PM 59.5°F15.3°C 53.0°F11.7°C 79% 14.0 mph S22.5 kmh S 17.0 mph27.4 kmh 30.02 in1016.6 mb 0.00 in0.0 mm 0.00 in/hr0.0 mm/hr 0.00 in0.0 mm
09:15 PM 59.4°F15.2°C 53.6°F12.0°C 81% 11.0 mph SE17.7 kmh SE 16.0 mph25.7 kmh 30.03 in1016.9 mb 0.00 in0.0 mm 0.00 in/hr0.0 mm/hr 0.00 in0.0 mm
09:30 PM 59.2°F15.1°C 53.4°F11.9°C 81% 15.0 mph S24.1 kmh S 17.0 mph27.4 kmh 30.02 in1016.6 mb 0.00 in0.0 mm 0.00 in/hr0.0 mm/hr 0.00 in0.0 mm
09:45 PM 59.0°F15.0°C 53.5°F11.9°C 82% 16.0 mph S25.7 kmh S 17.0 mph27.4 kmh 30.02 in1016.6 mb 0.00 in0.0 mm 0.00 in/hr0.0 mm/hr 0.00 in0.0 mm
10:00 PM 58.8°F14.9°C 53.3°F11.8°C 82% 11.0 mph S17.7 kmh S 16.0 mph25.7 kmh 30.02 in1016.6 mb 0.00 in0.0 mm 0.00 in/hr0.0 mm/hr 0.00 in0.0 mm
10:15 PM 58.7°F14.8°C 53.9°F12.2°C 84% 12.0 mph S19.3 kmh S 17.0 mph27.4 kmh 30.02 in1016.6 mb 0.00 in0.0 mm 0.00 in/hr0.0 mm/hr 0.00 in0.0 mm
10:30 PM 58.6°F14.8°C 54.1°F12.3°C 85% 13.0 mph SSE20.9 kmh SSE 19.0 mph30.6 kmh 30.01 in1016.3 mb 0.00 in0.0 mm 0.00 in/hr0.0 mm/hr 0.00 in0.0 mm
10:45 PM 58.6°F14.8°C 54.1°F12.3°C 85% 14.0 mph S22.5 kmh S 20.0 mph32.2 kmh 30.00 in1015.9 mb 0.00 in0.0 mm 0.00 in/hr0.0 mm/hr 0.00 in0.0 mm
11:00 PM 58.8°F14.9°C 54.3°F12.4°C 85% 18.0 mph S29.0 kmh S 20.0 mph32.2 kmh 30.00 in1015.9 mb 0.00 in0.0 mm 0.00 in/hr0.0 mm/hr 0.00 in0.0 mm
11:15 PM 58.9°F14.9°C 54.4°F12.4°C 85% 20.0 mph S32.2 kmh S 22.0 mph35.4 kmh 29.99 in1015.6 mb 0.00 in0.0 mm 0.00 in/hr0.0 mm/hr 0.00 in0.0 mm
11:30 PM 58.8°F14.9°C 54.6°F12.6°C 86% 17.0 mph S27.4 kmh S 22.0 mph35.4 kmh 29.97 in1014.9 mb 0.00 in0.0 mm 0.00 in/hr0.0 mm/hr 0.00 in0.0 mm
11:45 PM 58.8°F14.9°C 54.3°F12.4°C 85% 14.0 mph S22.5 kmh S 21.0 mph33.8 kmh 29.97 in1014.9 mb 0.00 in0.0 mm 0.00 in/hr0.0 mm/hr 0.00 in0.0 mm